Time;durP1;ratioP1;P1;durP2;ratioP2;P2;SDS_P1;SDS_P2;PMS_P1;PMS_P2;Temp;Humidity;BMP_temperature;BMP_pressure;BME280_temperature;BME280_humidity;BME280_pressure;Samples;Min_cycle;Max_cycle;Signal;HPM_P1;HPM_P2
2022/04/24 00:01:32;;;;;;;3.40;3.10;;;19.30;52.30;;;;;;5154059;27;20298;-71
2022/04/24 00:03:57;;;;;;;3.28;3.08;;;19.30;52.30;;;;;;5152819;27;20223;-71
2022/04/24 00:06:23;;;;;;;3.60;3.30;;;19.30;52.30;;;;;;5154047;27;20544;-71
2022/04/24 00:08:49;;;;;;;3.67;3.20;;;19.30;52.30;;;;;;5153569;27;20175;-69
2022/04/24 00:11:15;;;;;;;3.70;3.40;;;19.20;52.20;;;;;;5153354;27;20191;-71
2022/04/24 00:13:42;;;;;;;3.47;3.17;;;19.20;52.20;;;;;;5153702;27;20622;-70
2022/04/24 00:16:08;;;;;;;3.15;2.95;;;19.20;52.20;;;;;;5153888;27;20255;-71
2022/04/24 00:18:33;;;;;;;3.10;2.90;;;19.20;52.20;;;;;;5153055;27;20592;-71
2022/04/24 00:20:59;;;;;;;3.80;3.55;;;19.20;52.20;;;;;;5153457;27;20688;-72
2022/04/24 00:23:24;;;;;;;3.00;2.80;;;19.20;52.30;;;;;;5153538;27;20210;-72
2022/04/24 00:25:50;;;;;;;3.20;3.00;;;19.20;52.20;;;;;;5152547;27;20646;-72
2022/04/24 00:28:15;;;;;;;3.00;2.80;;;19.20;52.20;;;;;;5153744;27;20171;-72
2022/04/24 00:30:41;;;;;;;3.15;2.95;;;19.20;52.20;;;;;;5153376;27;20164;-72
2022/04/24 00:33:06;;;;;;;3.25;3.05;;;19.20;52.20;;;;;;5152686;27;20206;-72
2022/04/24 00:35:32;;;;;;;3.08;2.88;;;19.20;52.20;;;;;;5153568;27;20462;-72
2022/04/24 00:37:57;;;;;;;3.10;2.90;;;19.20;52.20;;;;;;5153030;27;20176;-71
2022/04/24 00:40:23;;;;;;;3.53;3.22;;;19.20;52.20;;;;;;5151823;27;20172;-71
2022/04/24 00:42:49;;;;;;;3.80;3.05;;;19.20;52.20;;;;;;5153234;27;20638;-71
2022/04/24 00:45:15;;;;;;;3.35;3.15;;;19.10;52.20;;;;;;5153327;27;20622;-71
2022/04/24 00:47:41;;;;;;;3.60;3.30;;;19.20;52.30;;;;;;5152860;27;20168;-71
2022/04/24 00:50:07;;;;;;;3.60;3.35;;;19.10;52.20;;;;;;5153644;27;20172;-70
2022/04/24 00:52:33;;;;;;;3.60;3.35;;;19.10;52.20;;;;;;5152658;27;20186;-70
2022/04/24 00:54:58;;;;;;;3.67;3.40;;;19.10;52.20;;;;;;5134819;27;20521;-72
2022/04/24 00:57:24;;;;;;;3.22;3.03;;;19.10;52.20;;;;;;5117573;27;20615;-72
2022/04/24 00:59:49;;;;;;;3.38;3.17;;;19.10;52.20;;;;;;5152391;27;20176;-73
2022/04/24 01:02:15;;;;;;;3.50;3.30;;;19.10;52.20;;;;;;5153297;27;20246;-72
2022/04/24 01:04:40;;;;;;;3.53;3.33;;;19.10;52.30;;;;;;5152648;27;20223;-70
2022/04/24 01:07:06;;;;;;;3.40;3.20;;;19.10;52.20;;;;;;5134043;27;20175;-72
2022/04/24 01:09:33;;;;;;;3.33;3.13;;;19.10;52.20;;;;;;5153441;27;20164;-69
2022/04/24 01:11:58;;;;;;;3.45;3.25;;;19.10;52.20;;;;;;5152789;27;20220;-71
2022/04/24 01:14:25;;;;;;;3.80;3.53;;;19.10;52.30;;;;;;5152614;27;20172;-71
2022/04/24 01:16:51;;;;;;;3.28;3.08;;;19.10;52.90;;;;;;5152909;27;20171;-72
2022/04/24 01:19:19;;;;;;;3.58;3.38;;;19.10;52.30;;;;;;5152960;27;20182;-72
2022/04/24 01:21:46;;;;;;;3.42;3.22;;;19.10;52.30;;;;;;5151779;27;20211;-72
2022/04/24 01:24:12;;;;;;;3.83;3.53;;;19.10;52.30;;;;;;5152923;27;20651;-71
2022/04/24 01:26:38;;;;;;;3.42;3.22;;;19.10;52.30;;;;;;5152821;27;20308;-72
2022/04/24 01:29:04;;;;;;;3.45;3.15;;;19.10;52.30;;;;;;5152351;27;20258;-72
2022/04/24 01:31:30;;;;;;;4.15;3.65;;;19.00;52.20;;;;;;5152973;27;20306;-71
2022/04/24 01:33:55;;;;;;;3.65;3.40;;;19.00;52.30;;;;;;5152675;27;20255;-71
2022/04/24 01:36:21;;;;;;;3.50;3.30;;;19.00;52.20;;;;;;5151958;27;20297;-72
2022/04/24 01:38:46;;;;;;;3.67;3.38;;;19.00;52.90;;;;;;5152403;27;20168;-70
2022/04/24 01:41:12;;;;;;;3.58;3.38;;;19.00;52.30;;;;;;5152774;27;20332;-72
2022/04/24 01:43:38;;;;;;;3.60;3.38;;;19.00;52.30;;;;;;5151837;27;20614;-72
2022/04/24 01:46:06;;;;;;;3.38;3.17;;;19.00;52.30;;;;;;5152726;27;20498;-72
2022/04/24 01:48:33;;;;;;;3.85;3.60;;;19.00;52.30;;;;;;5152508;27;20591;-70
2022/04/24 01:51:05;;;;;;;3.88;3.58;;;19.00;52.30;;;;;;5152063;27;20176;-70
2022/04/24 01:53:31;;;;;;;3.25;3.03;;;19.00;52.30;;;;;;5156278;27;20179;-71
2022/04/24 01:55:57;;;;;;;3.47;3.25;;;19.00;52.30;;;;;;5155234;27;20172;-72
2022/04/24 01:58:26;;;;;;;3.53;3.22;;;19.00;52.30;;;;;;5156233;27;20176;-72
2022/04/24 02:00:52;;;;;;;3.20;3.00;;;19.00;52.30;;;;;;5155869;27;20176;-73
2022/04/24 02:03:18;;;;;;;3.33;3.13;;;19.00;52.30;;;;;;5155153;27;20175;-72
2022/04/24 02:05:43;;;;;;;3.50;3.30;;;19.00;52.30;;;;;;5156006;27;20172;-71
2022/04/24 02:08:09;;;;;;;3.55;3.28;;;19.00;52.30;;;;;;5156176;27;20583;-70
2022/04/24 02:10:34;;;;;;;3.30;3.10;;;19.00;52.30;;;;;;5154905;27;20579;-71
2022/04/24 02:13:00;;;;;;;3.70;3.50;;;18.90;52.30;;;;;;5155977;27;20180;-71
2022/04/24 02:15:25;;;;;;;3.75;3.55;;;18.90;52.30;;;;;;5155874;27;20172;-71
2022/04/24 02:17:51;;;;;;;3.47;3.28;;;18.90;52.30;;;;;;5155315;27;20240;-71
2022/04/24 02:20:16;;;;;;;3.50;3.25;;;18.90;52.30;;;;;;5155827;27;20243;-72
2022/04/24 02:22:42;;;;;;;3.40;3.20;;;18.90;52.30;;;;;;5156188;27;20692;-72
2022/04/24 02:25:07;;;;;;;3.28;3.08;;;18.90;52.30;;;;;;5156248;27;20191;-71
2022/04/24 02:27:34;;;;;;;3.20;3.00;;;18.90;52.30;;;;;;5156081;27;20207;-71
2022/04/24 02:29:59;;;;;;;3.53;3.22;;;18.90;52.30;;;;;;5156507;27;20183;-70
2022/04/24 02:32:25;;;;;;;3.42;3.22;;;18.90;52.30;;;;;;5155735;27;20210;-71
2022/04/24 02:34:50;;;;;;;3.30;3.10;;;18.90;52.30;;;;;;5156137;27;20163;-71
2022/04/24 02:37:16;;;;;;;3.50;3.30;;;18.90;52.30;;;;;;5156369;27;20578;-72
2022/04/24 02:39:41;;;;;;;3.60;3.40;;;18.90;52.30;;;;;;5155475;27;20179;-71
2022/04/24 02:42:07;;;;;;;3.78;3.58;;;18.90;52.40;;;;;;5156419;27;20298;-70
2022/04/24 02:44:32;;;;;;;3.30;3.10;;;18.80;52.30;;;;;;5156350;27;20180;-71
2022/04/24 02:46:58;;;;;;;3.72;3.42;;;18.80;52.30;;;;;;5155145;27;20630;-71
2022/04/24 02:49:23;;;;;;;3.63;3.35;;;18.80;52.30;;;;;;5156178;27;20176;-70
2022/04/24 02:51:49;;;;;;;3.95;3.65;;;18.90;52.40;;;;;;5156079;27;20171;-70
2022/04/24 02:54:14;;;;;;;3.40;3.20;;;18.90;52.40;;;;;;5155581;27;20168;-70
2022/04/24 02:56:41;;;;;;;3.40;3.20;;;18.90;52.40;;;;;;5155670;27;20196;-72
2022/04/24 02:59:06;;;;;;;3.60;3.40;;;18.90;52.40;;;;;;5155354;27;20164;-73
2022/04/24 03:01:33;;;;;;;3.80;3.50;;;18.80;52.30;;;;;;5155734;27;20206;-72
2022/04/24 03:03:59;;;;;;;3.83;3.60;;;18.80;52.30;;;;;;5154656;27;20219;-72
2022/04/24 03:06:24;;;;;;;3.65;3.38;;;18.80;52.30;;;;;;5155321;27;20661;-70
2022/04/24 03:08:50;;;;;;;3.45;3.25;;;18.80;52.30;;;;;;5155554;27;20231;-70
2022/04/24 03:11:16;;;;;;;3.20;3.00;;;18.80;52.30;;;;;;5155699;27;20654;-72
2022/04/24 03:13:41;;;;;;;3.42;3.22;;;18.80;52.40;;;;;;5154966;27;20180;-72
2022/04/24 03:16:07;;;;;;;4.10;3.80;;;18.80;52.30;;;;;;5155808;27;20171;-73
2022/04/24 03:18:32;;;;;;;3.75;3.45;;;18.80;52.40;;;;;;5155574;27;20182;-72
2022/04/24 03:20:58;;;;;;;3.20;2.97;;;18.80;52.30;;;;;;5154663;27;20179;-73
2022/04/24 03:23:23;;;;;;;4.03;3.72;;;18.80;52.40;;;;;;5155614;27;20180;-72
2022/04/24 03:25:50;;;;;;;3.30;3.10;;;18.80;52.40;;;;;;5155517;27;20217;-71
2022/04/24 03:28:16;;;;;;;3.67;3.42;;;18.80;52.40;;;;;;5154743;27;20229;-71
2022/04/24 03:30:42;;;;;;;3.38;3.17;;;18.70;52.30;;;;;;5155035;27;20171;-72
2022/04/24 03:33:07;;;;;;;3.42;3.13;;;18.80;52.50;;;;;;5155310;27;20184;-72
2022/04/24 03:35:33;;;;;;;3.42;3.22;;;18.70;52.40;;;;;;5154747;27;20175;-71
2022/04/24 03:37:58;;;;;;;3.40;3.17;;;18.70;52.40;;;;;;5154985;27;20187;-71
2022/04/24 03:40:24;;;;;;;3.40;3.13;;;18.70;52.40;;;;;;5155117;27;20529;-71
2022/04/24 03:42:49;;;;;;;3.50;3.28;;;18.70;52.30;;;;;;5154086;27;20302;-71
2022/04/24 03:45:14;;;;;;;3.30;3.10;;;18.70;52.40;;;;;;5155084;27;20164;-72
2022/04/24 03:47:40;;;;;;;3.17;2.97;;;18.70;52.40;;;;;;5154769;27;20190;-71
2022/04/24 03:50:06;;;;;;;3.63;3.30;;;18.70;52.30;;;;;;5154547;27;20622;-71
2022/04/24 03:52:32;;;;;;;3.75;3.50;;;18.70;52.40;;;;;;5155149;27;20516;-70
2022/04/24 03:54:57;;;;;;;3.00;2.80;;;19.00;52.50;;;;;;5154719;27;20637;-71
2022/04/24 03:57:23;;;;;;;3.70;3.40;;;18.70;52.40;;;;;;5154244;27;20171;-72
2022/04/24 03:59:48;;;;;;;3.38;3.17;;;18.70;52.40;;;;;;5154504;27;20172;-73
2022/04/24 04:02:14;;;;;;;3.28;3.08;;;18.70;52.40;;;;;;5154013;27;20670;-73
2022/04/24 04:04:39;;;;;;;3.10;2.90;;;18.70;52.40;;;;;;5154364;27;20950;-70
2022/04/24 04:07:05;;;;;;;3.60;3.30;;;18.70;52.50;;;;;;5154926;27;20172;-71
2022/04/24 04:09:30;;;;;;;3.40;3.20;;;18.70;52.40;;;;;;5153877;27;20229;-70
2022/04/24 04:11:56;;;;;;;3.65;3.35;;;18.70;53.10;;;;;;5154463;27;20180;-71
2022/04/24 04:14:21;;;;;;;3.40;3.15;;;18.60;52.40;;;;;;5154590;27;20527;-71
2022/04/24 04:16:50;;;;;;;3.35;3.13;;;18.60;52.40;;;;;;5153420;27;20175;-72
2022/04/24 04:19:16;;;;;;;3.35;3.15;;;18.60;52.40;;;;;;5154685;27;20172;-71
2022/04/24 04:21:43;;;;;;;3.28;2.97;;;18.60;52.40;;;;;;5154323;27;20292;-72
2022/04/24 04:24:08;;;;;;;3.95;3.65;;;18.60;52.40;;;;;;5153851;27;20168;-71
2022/04/24 04:26:34;;;;;;;3.30;3.10;;;18.60;52.40;;;;;;5154592;27;20187;-72
2022/04/24 04:29:00;;;;;;;3.40;3.10;;;18.60;52.40;;;;;;5154453;27;20727;-70
2022/04/24 04:31:25;;;;;;;3.55;3.35;;;18.60;52.40;;;;;;5153561;27;20168;-71
2022/04/24 04:33:51;;;;;;;3.65;3.35;;;18.60;52.40;;;;;;5154365;27;20653;-72
2022/04/24 04:36:16;;;;;;;3.40;3.20;;;18.60;52.40;;;;;;5154457;27;20167;-71
2022/04/24 04:38:42;;;;;;;3.22;3.03;;;18.60;52.40;;;;;;5153287;27;20176;-71
2022/04/24 04:41:08;;;;;;;3.30;3.10;;;18.60;52.40;;;;;;5154317;27;20196;-72
2022/04/24 04:43:33;;;;;;;3.42;3.13;;;18.60;52.40;;;;;;5154208;27;20690;-72
2022/04/24 04:45:58;;;;;;;3.30;3.10;;;18.60;52.40;;;;;;5153121;27;20163;-72
2022/04/24 04:48:24;;;;;;;3.22;3.03;;;18.60;52.40;;;;;;5154417;27;20167;-71
2022/04/24 04:50:50;;;;;;;3.47;3.28;;;18.60;52.40;;;;;;5154117;27;20512;-71
2022/04/24 04:53:15;;;;;;;3.42;3.22;;;18.60;52.40;;;;;;5153567;27;20224;-71
2022/04/24 04:55:42;;;;;;;3.00;2.80;;;18.60;52.40;;;;;;5153931;27;20164;-72
2022/04/24 04:58:07;;;;;;;3.20;3.00;;;18.60;52.40;;;;;;5154453;27;20534;-73
2022/04/24 05:00:33;;;;;;;3.30;3.10;;;18.60;52.40;;;;;;5153325;27;20172;-73
2022/04/24 05:02:58;;;;;;;3.35;3.13;;;18.60;52.40;;;;;;5153732;27;20695;-73
2022/04/24 05:05:24;;;;;;;3.13;2.92;;;18.60;52.40;;;;;;5153889;27;20215;-72
2022/04/24 05:07:49;;;;;;;3.70;3.40;;;18.60;52.40;;;;;;5153073;27;20179;-70
2022/04/24 05:10:15;;;;;;;3.05;2.85;;;18.60;52.40;;;;;;5154234;27;20620;-69
2022/04/24 05:12:40;;;;;;;3.72;3.45;;;18.60;52.40;;;;;;5153052;27;20176;-71
2022/04/24 05:15:07;;;;;;;3.50;3.20;;;18.60;52.30;;;;;;5153881;27;20175;-71
2022/04/24 05:17:34;;;;;;;3.28;3.08;;;18.60;52.30;;;;;;5154356;27;20172;-72
2022/04/24 05:19:59;;;;;;;2.97;2.78;;;18.60;52.30;;;;;;5153308;27;20172;-72
2022/04/24 05:22:25;;;;;;;3.10;2.90;;;18.60;52.30;;;;;;5153919;27;20219;-72
2022/04/24 05:24:50;;;;;;;3.42;3.22;;;18.60;52.30;;;;;;5153719;27;20168;-71
2022/04/24 05:27:16;;;;;;;3.17;2.97;;;18.60;52.30;;;;;;5154770;27;20190;-72
2022/04/24 05:29:42;;;;;;;3.22;3.03;;;18.60;52.30;;;;;;5157435;27;20763;-71
2022/04/24 05:32:07;;;;;;;3.03;2.80;;;18.60;52.30;;;;;;5157925;27;20223;-71
2022/04/24 05:34:33;;;;;;;2.80;2.60;;;18.60;52.30;;;;;;5157397;27;20172;-72
2022/04/24 05:36:58;;;;;;;3.10;2.90;;;18.60;52.30;;;;;;5157565;27;20172;-71
2022/04/24 05:39:24;;;;;;;3.40;3.10;;;18.60;52.30;;;;;;5157560;27;20240;-72
2022/04/24 05:41:49;;;;;;;2.67;2.50;;;18.60;52.30;;;;;;5156476;27;20204;-72
2022/04/24 05:44:15;;;;;;;2.90;2.70;;;18.60;52.30;;;;;;5157518;27;20176;-73
2022/04/24 05:46:40;;;;;;;3.10;2.90;;;18.60;52.20;;;;;;5157390;27;20360;-72
2022/04/24 05:49:06;;;;;;;3.40;3.10;;;18.60;52.20;;;;;;5156670;27;20190;-72
2022/04/24 05:51:33;;;;;;;3.13;2.92;;;18.60;52.20;;;;;;5157415;27;20164;-71
2022/04/24 05:53:59;;;;;;;3.42;3.17;;;18.60;52.80;;;;;;5157144;27;20183;-71
2022/04/24 05:56:24;;;;;;;3.00;2.80;;;18.60;52.20;;;;;;5156994;27;20176;-73
2022/04/24 05:58:51;;;;;;;3.75;3.45;;;18.60;52.10;;;;;;5156914;27;20567;-73
2022/04/24 06:01:16;;;;;;;3.08;2.88;;;18.60;52.10;;;;;;5157310;27;20219;-73
2022/04/24 06:03:42;;;;;;;3.30;3.10;;;18.60;52.10;;;;;;5156132;27;20250;-71
2022/04/24 06:06:08;;;;;;;2.75;2.55;;;18.60;52.30;;;;;;5157261;27;20262;-71
2022/04/24 06:08:33;;;;;;;3.00;2.80;;;18.70;52.20;;;;;;5157191;27;20180;-69
2022/04/24 06:10:59;;;;;;;2.97;2.78;;;18.70;52.20;;;;;;5156077;27;20630;-70
2022/04/24 06:13:24;;;;;;;3.03;2.83;;;18.70;52.10;;;;;;5157001;27;20275;-72
2022/04/24 06:15:54;;;;;;;3.13;2.92;;;18.70;52.10;;;;;;5156454;27;20180;-72
2022/04/24 06:18:19;;;;;;;2.78;2.65;;;18.70;52.10;;;;;;5157113;27;20260;-72
2022/04/24 06:20:45;;;;;;;3.00;2.78;;;18.70;52.10;;;;;;5156543;27;20250;-72
2022/04/24 06:23:10;;;;;;;2.45;2.35;;;18.70;52.10;;;;;;5156000;27;20231;-72
2022/04/24 06:25:36;;;;;;;3.28;3.08;;;18.70;52.10;;;;;;5156467;27;20172;-72
2022/04/24 06:28:02;;;;;;;3.10;2.90;;;18.70;52.00;;;;;;5156721;27;20255;-74
2022/04/24 06:30:29;;;;;;;3.28;3.08;;;18.70;52.00;;;;;;5156071;27;20266;-72
2022/04/24 06:32:55;;;;;;;3.17;2.97;;;18.70;52.00;;;;;;5156328;27;20175;-72
2022/04/24 06:35:20;;;;;;;3.00;2.80;;;18.70;52.00;;;;;;5156652;27;20180;-73
2022/04/24 06:37:48;;;;;;;2.80;2.60;;;18.70;52.00;;;;;;5154761;27;20263;-71
2022/04/24 06:40:15;;;;;;;3.17;2.95;;;18.80;52.00;;;;;;5155722;27;20180;-71
2022/04/24 06:42:51;;;;;;;2.80;2.60;;;18.80;52.00;;;;;;5156202;27;20618;-73
2022/04/24 06:45:17;;;;;;;3.13;2.92;;;18.80;51.90;;;;;;5155782;27;20190;-73
2022/04/24 06:47:43;;;;;;;2.85;2.65;;;18.80;51.90;;;;;;5156019;27;20592;-71
2022/04/24 06:50:09;;;;;;;2.50;2.40;;;18.80;51.90;;;;;;5156485;27;20167;-71
2022/04/24 06:52:34;;;;;;;2.50;2.40;;;18.80;51.90;;;;;;5155143;27;20634;-70
2022/04/24 06:55:00;;;;;;;3.00;2.80;;;18.80;51.90;;;;;;5156102;27;20202;-72
2022/04/24 06:57:26;;;;;;;2.83;2.63;;;18.80;51.90;;;;;;5156284;27;20542;-73
2022/04/24 06:59:51;;;;;;;3.05;2.85;;;18.80;51.90;;;;;;5155281;27;20521;-73
2022/04/24 07:02:20;;;;;;;2.95;2.75;;;18.90;51.90;;;;;;5156114;27;20207;-72
2022/04/24 07:04:45;;;;;;;2.80;2.65;;;18.90;51.90;;;;;;5155420;27;20216;-71
2022/04/24 07:07:11;;;;;;;2.70;2.50;;;18.90;51.80;;;;;;5154438;27;20225;-72
2022/04/24 07:09:36;;;;;;;3.10;2.90;;;18.90;51.80;;;;;;5155501;27;20197;-71
2022/04/24 07:12:02;;;;;;;2.78;2.58;;;18.90;51.80;;;;;;5155622;27;20179;-71
2022/04/24 07:14:27;;;;;;;2.60;2.50;;;18.90;51.80;;;;;;5155199;27;20657;-72
2022/04/24 07:16:53;;;;;;;2.90;2.70;;;18.90;51.80;;;;;;5155224;27;20171;-73
2022/04/24 07:19:19;;;;;;;3.90;2.90;;;18.90;51.80;;;;;;5155028;27;20168;-74
2022/04/24 07:21:48;;;;;;;3.53;3.03;;;19.00;52.10;;;;;;5155334;27;20202;-74
2022/04/24 07:24:13;;;;;;;3.75;2.95;;;19.00;51.90;;;;;;5155493;27;20168;-73
2022/04/24 07:26:39;;;;;;;3.20;2.80;;;19.00;51.80;;;;;;5154410;27;20755;-75
2022/04/24 07:29:04;;;;;;;3.22;3.03;;;18.90;51.30;;;;;;5155624;27;20232;-75
2022/04/24 07:31:30;;;;;;;2.90;2.70;;;18.90;51.20;;;;;;5155518;27;20266;-73
2022/04/24 07:33:56;;;;;;;3.17;2.78;;;19.00;51.10;;;;;;5154161;27;20176;-70
2022/04/24 07:36:22;;;;;;;3.20;2.90;;;19.00;50.60;;;;;;5155193;27;20188;-69
2022/04/24 07:38:50;;;;;;;3.10;2.80;;;19.00;50.70;;;;;;5154898;27;20172;-73
2022/04/24 07:41:16;;;;;;;3.60;3.30;;;19.00;51.00;;;;;;5154584;27;20203;-70
2022/04/24 07:43:48;;;;;;;3.97;2.90;;;19.00;50.80;;;;;;5154887;27;20172;-68
2022/04/24 07:46:14;;;;;;;3.25;2.97;;;19.00;50.80;;;;;;5155266;27;20191;-68
2022/04/24 07:48:39;;;;;;;3.10;2.90;;;19.10;50.90;;;;;;5154084;27;20198;-68
2022/04/24 07:51:04;;;;;;;2.80;2.60;;;19.20;51.00;;;;;;5154752;27;20172;-68
2022/04/24 07:53:30;;;;;;;3.65;3.35;;;19.10;50.90;;;;;;5155182;27;20164;-68
2022/04/24 07:55:55;;;;;;;2.83;2.63;;;19.20;51.00;;;;;;5153777;27;20557;-69
2022/04/24 07:58:21;;;;;;;2.95;2.70;;;19.20;51.10;;;;;;5155007;27;20194;-73
2022/04/24 08:00:47;;;;;;;7.18;2.95;;;19.20;51.10;;;;;;5154601;27;20203;-72
2022/04/24 08:03:13;;;;;;;5.15;2.90;;;19.20;51.30;;;;;;5153898;27;20310;-73
2022/04/24 08:05:50;;;;;;;2.92;2.70;;;19.30;51.30;;;;;;5154468;27;20222;-70
2022/04/24 08:08:22;;;;;;;3.40;3.10;;;19.30;51.20;;;;;;5154673;27;20649;-70
2022/04/24 08:10:49;;;;;;;3.00;2.75;;;19.30;51.10;;;;;;5154400;27;20175;-72
2022/04/24 08:13:14;;;;;;;2.88;2.60;;;19.30;51.30;;;;;;5155175;27;20171;-72
2022/04/24 08:15:40;;;;;;;3.28;2.60;;;19.30;51.20;;;;;;5153729;27;20176;-71
2022/04/24 08:18:06;;;;;;;3.28;2.97;;;19.40;51.40;;;;;;5154717;27;20167;-72
2022/04/24 08:20:37;;;;;;;3.45;2.90;;;19.40;51.30;;;;;;5154397;27;20203;-72
2022/04/24 08:23:03;;;;;;;3.33;3.08;;;19.40;51.30;;;;;;5153935;27;20218;-71
2022/04/24 08:25:29;;;;;;;3.10;2.65;;;19.40;51.40;;;;;;5154586;27;20179;-74
2022/04/24 08:27:55;;;;;;;3.58;2.67;;;19.40;51.30;;;;;;5154239;27;20190;-74
2022/04/24 08:30:22;;;;;;;3.95;3.60;;;19.40;51.30;;;;;;5153790;27;20182;-73
2022/04/24 08:32:47;;;;;;;5.60;3.60;;;19.40;51.30;;;;;;5154043;27;20242;-71
2022/04/24 08:35:15;;;;;;;4.85;3.00;;;19.40;51.30;;;;;;5154326;27;20701;-69
2022/04/24 08:37:41;;;;;;;2.90;2.60;;;19.40;51.30;;;;;;5153498;27;20171;-66
2022/04/24 08:40:08;;;;;;;4.63;3.00;;;19.40;51.20;;;;;;5154239;27;20180;-69
2022/04/24 08:42:33;;;;;;;3.20;2.75;;;19.50;51.30;;;;;;5154157;27;20215;-68
2022/04/24 08:44:59;;;;;;;3.00;2.78;;;19.50;51.20;;;;;;5153290;27;20163;-68
2022/04/24 08:47:25;;;;;;;3.70;3.33;;;19.50;51.30;;;;;;5154142;27;20182;-69
2022/04/24 08:49:57;;;;;;;3.53;3.00;;;19.60;51.30;;;;;;5154128;27;20172;-69
2022/04/24 08:52:23;;;;;;;3.20;2.95;;;19.60;51.30;;;;;;5153751;27;20174;-69
2022/04/24 08:54:50;;;;;;;2.95;2.75;;;19.60;51.30;;;;;;5154030;27;20228;-70
2022/04/24 08:57:16;;;;;;;3.13;2.92;;;19.60;51.30;;;;;;5154417;27;20226;-71
2022/04/24 08:59:41;;;;;;;3.22;2.83;;;19.60;51.30;;;;;;5153855;27;20192;-72
2022/04/24 09:02:09;;;;;;;3.40;2.90;;;19.60;51.30;;;;;;5155429;27;20211;-68
2022/04/24 09:04:35;;;;;;;3.67;2.85;;;19.70;51.30;;;;;;5158232;27;20234;-67
2022/04/24 09:07:02;;;;;;;4.85;3.20;;;19.70;51.30;;;;;;5157685;27;20584;-66
2022/04/24 09:09:27;;;;;;;4.32;3.20;;;19.70;51.50;;;;;;5158224;27;20164;-72
2022/04/24 09:12:05;;;;;;;4.82;3.00;;;19.70;51.50;;;;;;5157103;27;20195;-70
2022/04/24 09:14:32;;;;;;;4.50;2.75;;;19.70;51.50;;;;;;5158080;27;20770;-73
2022/04/24 09:17:00;;;;;;;6.82;3.17;;;19.70;51.40;;;;;;5157879;27;20247;-67
2022/04/24 09:19:26;;;;;;;4.57;3.08;;;19.70;51.50;;;;;;5157238;27;20634;-67
2022/04/24 09:21:53;;;;;;;5.28;2.88;;;19.80;51.50;;;;;;5157633;27;20203;-73
2022/04/24 09:24:18;;;;;;;7.38;3.50;;;19.80;51.50;;;;;;5158130;27;20168;-74
2022/04/24 09:26:54;;;;;;;5.30;3.15;;;19.80;51.40;;;;;;5156922;27;20172;-72
2022/04/24 09:29:23;;;;;;;13.90;5.50;;;19.80;51.40;;;;;;5157043;27;20438;-72
2022/04/24 09:31:49;;;;;;;8.32;3.78;;;19.80;51.40;;;;;;5157616;27;20212;-71
2022/04/24 09:34:17;;;;;;;9.07;3.47;;;19.80;51.30;;;;;;5157172;27;20200;-67
2022/04/24 09:36:43;;;;;;;7.30;3.58;;;19.80;51.20;;;;;;5157331;27;20179;-68
2022/04/24 09:39:08;;;;;;;9.77;3.47;;;19.80;51.80;;;;;;5157763;27;20164;-71
2022/04/24 09:41:34;;;;;;;7.97;3.55;;;19.90;51.10;;;;;;5138117;27;20219;-68
2022/04/24 09:44:10;;;;;;;15.40;3.60;;;19.90;51.10;;;;;;5157845;27;20517;-70
2022/04/24 09:46:36;;;;;;;4.05;3.05;;;19.90;51.00;;;;;;5157259;27;20495;-69
2022/04/24 09:49:01;;;;;;;5.55;3.28;;;19.90;51.00;;;;;;5156687;27;20309;-69
2022/04/24 09:51:27;;;;;;;5.35;3.15;;;19.90;51.00;;;;;;5121961;27;20219;-66
2022/04/24 09:53:57;;;;;;;5.60;3.40;;;19.90;51.00;;;;;;5156432;27;20214;-66
2022/04/24 09:56:24;;;;;;;5.55;3.03;;;20.00;51.00;;;;;;5139334;27;20548;-67
2022/04/24 09:58:49;;;;;;;5.50;3.15;;;19.90;51.00;;;;;;5157180;27;20176;-67
2022/04/24 10:01:16;;;;;;;4.72;3.17;;;20.00;51.00;;;;;;5156525;27;20176;-68
2022/04/24 10:03:41;;;;;;;3.60;2.95;;;20.00;51.00;;;;;;5156607;27;20179;-67
2022/04/24 10:06:07;;;;;;;3.63;3.03;;;20.00;51.00;;;;;;5157225;27;20267;-67
2022/04/24 10:08:36;;;;;;;4.43;3.30;;;20.00;51.00;;;;;;5156270;27;20263;-69
2022/04/24 10:11:03;;;;;;;4.10;2.97;;;20.00;51.00;;;;;;5156778;27;20179;-70
2022/04/24 10:13:29;;;;;;;7.65;4.03;;;20.00;50.80;;;;;;5138562;27;20187;-72
2022/04/24 10:16:10;;;;;;;3.38;3.08;;;20.00;50.90;;;;;;5137485;27;20164;-72
2022/04/24 10:18:45;;;;;;;3.80;3.25;;;20.10;50.90;;;;;;5122345;27;20216;-73
2022/04/24 10:21:22;;;;;;;3.95;3.28;;;20.10;50.90;;;;;;5156709;27;20336;-71
2022/04/24 10:23:50;;;;;;;4.30;3.15;;;20.10;50.80;;;;;;5155980;27;20536;-72
2022/04/24 10:26:20;;;;;;;3.13;2.75;;;20.10;50.80;;;;;;5156732;27;20190;-73
2022/04/24 10:28:47;;;;;;;4.10;3.03;;;20.10;50.70;;;;;;5156502;27;20176;-73
2022/04/24 10:31:13;;;;;;;4.55;3.00;;;20.10;50.70;;;;;;5137789;27;20178;-73
2022/04/24 10:33:40;;;;;;;2.90;2.70;;;20.20;50.70;;;;;;5156290;27;20172;-71
2022/04/24 10:36:05;;;;;;;7.20;3.20;;;20.20;50.70;;;;;;5156130;27;20184;-72
2022/04/24 10:38:32;;;;;;;4.90;3.03;;;20.20;50.60;;;;;;5155440;27;20741;-72
2022/04/24 10:41:01;;;;;;;3.22;2.92;;;20.20;50.60;;;;;;5156349;27;20176;-72
2022/04/24 10:43:40;;;;;;;4.82;3.05;;;20.20;50.70;;;;;;5155859;27;20182;-72
2022/04/24 10:46:17;;;;;;;4.10;2.88;;;20.20;50.60;;;;;;5156621;27;20175;-72
2022/04/24 10:48:42;;;;;;;3.63;3.00;;;20.20;50.60;;;;;;5156284;27;20183;-73
2022/04/24 10:51:08;;;;;;;3.35;3.05;;;20.30;50.60;;;;;;5155740;27;20171;-73
2022/04/24 10:53:50;;;;;;;4.18;3.30;;;20.30;50.60;;;;;;5156387;27;20204;-73
2022/04/24 10:56:16;;;;;;;5.18;3.20;;;20.30;50.50;;;;;;5156176;27;20198;-71
2022/04/24 10:58:42;;;;;;;3.55;2.80;;;20.30;50.50;;;;;;5155088;27;20641;-70
2022/04/24 11:01:09;;;;;;;3.28;2.95;;;20.30;50.60;;;;;;5156123;27;20269;-70
2022/04/24 11:03:40;;;;;;;2.92;2.65;;;20.30;50.50;;;;;;5155534;27;20583;-69
2022/04/24 11:06:05;;;;;;;2.70;2.50;;;20.40;50.60;;;;;;5155461;27;20185;-70
2022/04/24 11:08:40;;;;;;;3.92;3.10;;;20.40;50.60;;;;;;5137329;27;20255;-72
2022/04/24 11:11:06;;;;;;;3.55;3.25;;;20.40;50.50;;;;;;5155870;27;20216;-73
2022/04/24 11:13:31;;;;;;;5.63;3.08;;;20.40;50.60;;;;;;5155038;27;20191;-73
2022/04/24 11:15:57;;;;;;;4.93;3.00;;;20.40;50.50;;;;;;5155905;27;20207;-73
2022/04/24 11:18:25;;;;;;;6.10;3.25;;;20.40;50.40;;;;;;5119286;27;20172;-71
2022/04/24 11:20:55;;;;;;;4.90;3.08;;;20.40;50.40;;;;;;5155419;27;20673;-71
2022/04/24 11:23:21;;;;;;;5.28;2.72;;;20.40;50.30;;;;;;5155625;27;20215;-70
2022/04/24 11:25:47;;;;;;;3.30;3.00;;;20.40;50.30;;;;;;5153974;27;20172;-69
2022/04/24 11:28:15;;;;;;;4.55;3.10;;;20.40;50.30;;;;;;5155803;27;20233;-70
2022/04/24 11:30:41;;;;;;;3.10;2.90;;;20.40;50.30;;;;;;5155387;27;20168;-67
2022/04/24 11:33:07;;;;;;;3.55;2.33;;;20.40;50.20;;;;;;5154836;27;20183;-68
2022/04/24 11:35:36;;;;;;;2.78;2.58;;;20.50;50.30;;;;;;5155598;27;20254;-68
2022/04/24 11:38:02;;;;;;;3.78;3.00;;;20.50;50.30;;;;;;5155337;27;20195;-68
2022/04/24 11:40:28;;;;;;;4.35;3.13;;;20.50;50.20;;;;;;5154619;27;20529;-69
2022/04/24 11:43:02;;;;;;;2.95;2.67;;;20.50;50.10;;;;;;5155103;27;20211;-68
2022/04/24 11:51:02;;;;;;;5.88;2.80;;;20.60;50.10;;;;;;5147439;27;20265;-74
2022/04/24 11:53:28;;;;;;;4.45;2.83;;;20.60;50.00;;;;;;5140696;27;20179;-73
2022/04/24 11:56:02;;;;;;;5.55;2.63;;;20.50;50.00;;;;;;5131212;27;20179;-74
2022/04/24 11:58:33;;;;;;;3.40;2.72;;;20.50;50.00;;;;;;5120206;27;20258;-73
2022/04/24 12:00:59;;;;;;;3.75;2.97;;;20.50;49.90;;;;;;5133393;27;20186;-73
2022/04/24 12:03:25;;;;;;;4.93;2.85;;;20.60;49.80;;;;;;5133591;27;20721;-68
2022/04/24 12:05:58;;;;;;;5.45;3.03;;;20.60;49.70;;;;;;5134004;27;20263;-72
2022/04/24 12:08:24;;;;;;;3.75;2.53;;;20.60;49.50;;;;;;5147168;27;20254;-73
2022/04/24 12:10:51;;;;;;;3.08;2.78;;;20.70;49.50;;;;;;5154350;27;20313;-73
2022/04/24 12:13:23;;;;;;;7.13;3.22;;;20.70;49.20;;;;;;5144928;27;20182;-73
2022/04/24 12:15:50;;;;;;;3.90;2.58;;;20.70;49.20;;;;;;5132889;27;20253;-74
2022/04/24 12:18:20;;;;;;;3.85;2.83;;;20.70;49.10;;;;;;5134039;27;20180;-74
2022/04/24 12:20:47;;;;;;;4.03;2.80;;;20.70;48.90;;;;;;5133755;27;20180;-73
2022/04/24 12:23:15;;;;;;;2.60;2.40;;;20.70;48.80;;;;;;5133108;27;20240;-73
2022/04/24 12:25:48;;;;;;;4.97;3.05;;;20.70;49.40;;;;;;5148925;27;20198;-75
2022/04/24 12:28:29;;;;;;;3.53;2.60;;;20.70;48.70;;;;;;5154764;27;20172;-74
2022/04/24 12:30:55;;;;;;;4.15;2.95;;;20.80;48.70;;;;;;5137400;27;20240;-72
2022/04/24 12:33:21;;;;;;;6.18;3.15;;;20.90;48.50;;;;;;5154448;27;20179;-72
2022/04/24 12:35:47;;;;;;;5.38;3.28;;;20.90;48.60;;;;;;5153304;27;20582;-72
2022/04/24 12:38:16;;;;;;;2.83;2.63;;;20.90;48.50;;;;;;5135982;27;20171;-72
2022/04/24 12:40:52;;;;;;;4.18;3.08;;;21.00;48.60;;;;;;5153970;27;20271;-73
2022/04/24 12:43:26;;;;;;;3.65;2.92;;;21.00;49.00;;;;;;5135250;27;20207;-74
2022/04/24 12:45:52;;;;;;;4.32;2.60;;;21.00;48.10;;;;;;5153930;27;20167;-73
2022/04/24 12:48:17;;;;;;;3.78;2.65;;;21.10;47.90;;;;;;5154343;27;20592;-67
2022/04/24 12:50:43;;;;;;;3.88;2.88;;;21.10;47.70;;;;;;5153233;27;20172;-70